Time;durP1;ratioP1;P1;durP2;ratioP2;P2;SDS_P1;SDS_P2;PMS_P1;PMS_P2;Temp;Humidity;BMP_temperature;BMP_pressure;BME280_temperature;BME280_humidity;BME280_pressure;Samples;Min_cycle;Max_cycle;Signal;HPM_P1;HPM_P2
2022/03/22 00:00:10;;;;;;;17.95;8.48;;;10.80;75.30;;;;;;5109573;28;20032;-72
2022/03/22 00:02:37;;;;;;;24.75;9.98;;;10.80;75.40;;;;;;5109198;28;20475;-74
2022/03/22 00:05:03;;;;;;;18.10;8.65;;;10.80;75.50;;;;;;5109572;28;20488;-73
2022/03/22 00:07:29;;;;;;;20.25;9.15;;;10.80;75.30;;;;;;5109706;28;20030;-75
2022/03/22 00:09:55;;;;;;;14.18;8.02;;;10.80;76.10;;;;;;5110123;28;20080;-74
2022/03/22 00:12:20;;;;;;;16.67;8.65;;;10.80;75.40;;;;;;5109409;28;20032;-74
2022/03/22 00:14:46;;;;;;;16.08;8.00;;;10.80;75.50;;;;;;5121355;28;20027;-72
2022/03/22 00:17:12;;;;;;;20.40;8.80;;;10.80;75.60;;;;;;5111863;28;20019;-73
2022/03/22 00:19:38;;;;;;;16.05;9.07;;;10.80;75.50;;;;;;5129996;28;20031;-72
2022/03/22 00:22:04;;;;;;;22.80;8.70;;;10.80;75.70;;;;;;5129733;28;20476;-73
2022/03/22 00:24:30;;;;;;;21.05;9.63;;;10.80;75.30;;;;;;5112045;28;20019;-72
2022/03/22 00:26:56;;;;;;;19.45;8.65;;;10.80;75.40;;;;;;5129877;28;20034;-73
2022/03/22 00:29:22;;;;;;;14.90;8.00;;;10.80;75.40;;;;;;5120357;28;20024;-73
2022/03/22 00:31:48;;;;;;;20.88;10.25;;;10.80;75.20;;;;;;5109276;28;20429;-72
2022/03/22 00:34:13;;;;;;;18.23;9.57;;;10.80;75.30;;;;;;5109276;28;20103;-73
2022/03/22 00:36:40;;;;;;;20.65;9.27;;;10.70;75.30;;;;;;5109527;28;20030;-72
2022/03/22 00:39:06;;;;;;;22.17;9.48;;;10.80;75.40;;;;;;5109395;28;20028;-72
2022/03/22 00:41:31;;;;;;;17.05;8.27;;;10.70;75.50;;;;;;5094828;28;20473;-73
2022/03/22 00:43:57;;;;;;;18.40;9.10;;;10.70;75.40;;;;;;5098681;27;20035;-73
2022/03/22 00:46:23;;;;;;;16.92;8.32;;;10.70;75.30;;;;;;5134107;27;20141;-73
2022/03/22 00:48:48;;;;;;;18.55;8.63;;;10.70;75.40;;;;;;5133117;27;20475;-73
2022/03/22 00:51:15;;;;;;;17.63;8.23;;;10.70;75.30;;;;;;5115374;27;20028;-73
2022/03/22 00:53:41;;;;;;;18.98;8.88;;;10.70;75.40;;;;;;5115446;27;20084;-73
2022/03/22 00:56:08;;;;;;;17.65;8.73;;;10.70;75.30;;;;;;5133787;27;20023;-73
2022/03/22 00:58:34;;;;;;;15.38;8.90;;;10.70;75.50;;;;;;5133065;27;20215;-73
2022/03/22 01:01:00;;;;;;;17.83;8.88;;;10.70;75.50;;;;;;5095974;28;20103;-73
2022/03/22 01:03:29;;;;;;;14.93;8.95;;;10.80;75.50;;;;;;5112324;28;20031;-72
2022/03/22 01:05:56;;;;;;;18.08;8.70;;;10.70;75.40;;;;;;5089879;28;20019;-73
2022/03/22 01:08:23;;;;;;;21.83;8.90;;;10.70;75.30;;;;;;5099228;28;20379;-73
2022/03/22 01:10:52;;;;;;;20.92;8.90;;;10.70;76.30;;;;;;5111419;28;20027;-73
2022/03/22 01:13:30;;;;;;;17.90;9.57;;;10.70;75.50;;;;;;5111980;28;20400;-73
2022/03/22 01:15:57;;;;;;;19.52;8.80;;;10.70;75.60;;;;;;5112557;27;20077;-73
2022/03/22 01:18:25;;;;;;;16.25;8.32;;;10.70;75.60;;;;;;5094802;28;20031;-73
2022/03/22 01:20:50;;;;;;;17.58;8.77;;;10.70;75.60;;;;;;5093257;28;20096;-73
2022/03/22 01:23:19;;;;;;;15.55;8.43;;;10.70;75.60;;;;;;5112319;28;20051;-73
2022/03/22 01:25:45;;;;;;;17.60;9.00;;;10.70;75.40;;;;;;5112798;28;20047;-73
2022/03/22 01:28:12;;;;;;;16.95;8.82;;;10.70;75.30;;;;;;5112154;28;20047;-73
2022/03/22 01:30:38;;;;;;;20.77;9.38;;;10.70;75.30;;;;;;5112179;27;20055;-73
2022/03/22 01:33:05;;;;;;;19.23;8.80;;;10.70;75.30;;;;;;5112773;28;20066;-73
2022/03/22 01:35:31;;;;;;;21.05;8.30;;;10.70;75.10;;;;;;5112530;28;20051;-73
2022/03/22 01:37:56;;;;;;;21.00;9.45;;;10.70;75.40;;;;;;5112286;28;20082;-73
2022/03/22 01:40:24;;;;;;;20.42;8.48;;;10.60;75.20;;;;;;5112593;28;20107;-73
2022/03/22 01:42:51;;;;;;;22.80;9.38;;;10.60;75.30;;;;;;5111797;28;20022;-73
2022/03/22 01:45:17;;;;;;;16.73;8.95;;;10.70;75.30;;;;;;5121628;27;20080;-73
2022/03/22 01:47:44;;;;;;;16.75;8.15;;;10.60;75.20;;;;;;5114110;27;20019;-73
2022/03/22 01:50:12;;;;;;;18.08;8.52;;;10.60;75.20;;;;;;5118176;27;20042;-73
2022/03/22 01:52:40;;;;;;;20.23;8.48;;;10.60;75.30;;;;;;5110474;28;20055;-73
2022/03/22 01:55:07;;;;;;;19.00;8.93;;;10.60;75.20;;;;;;5112574;28;20342;-73
2022/03/22 01:57:33;;;;;;;16.45;9.02;;;10.60;75.50;;;;;;5112154;28;20027;-73
2022/03/22 02:00:00;;;;;;;18.27;9.02;;;10.60;75.60;;;;;;5118174;27;20038;-73
2022/03/22 02:07:57;;;;;;;21.38;9.10;;;10.60;75.40;;;;;;5132696;27;20033;-73
2022/03/22 02:10:23;;;;;;;21.30;8.55;;;10.60;75.40;;;;;;5132356;27;20219;-73
2022/03/22 02:12:49;;;;;;;19.10;9.07;;;10.60;75.40;;;;;;5131835;27;20028;-72
2022/03/22 02:15:15;;;;;;;18.70;8.48;;;10.60;75.40;;;;;;5123404;27;20434;-73
2022/03/22 02:17:45;;;;;;;17.73;8.73;;;10.60;75.40;;;;;;5111882;28;20027;-73
2022/03/22 02:20:14;;;;;;;20.63;9.63;;;10.60;75.40;;;;;;5093555;28;20020;-73
2022/03/22 02:23:04;;;;;;;18.15;8.90;;;10.60;76.30;;;;;;5098910;28;20031;-74
2022/03/22 02:25:30;;;;;;;18.75;8.43;;;10.60;75.40;;;;;;5084729;28;20077;-73
2022/03/22 02:27:56;;;;;;;20.90;8.82;;;10.60;75.40;;;;;;5106628;28;20028;-73
2022/03/22 02:30:22;;;;;;;18.75;8.95;;;10.60;75.30;;;;;;5096326;28;20020;-73
2022/03/22 02:32:56;;;;;;;18.00;9.20;;;10.60;75.40;;;;;;5111024;28;20032;-73
2022/03/22 02:35:23;;;;;;;16.63;8.50;;;10.60;75.40;;;;;;5111680;28;20031;-73
2022/03/22 02:37:50;;;;;;;20.10;8.40;;;10.60;75.30;;;;;;5110229;28;20081;-73
2022/03/22 02:40:17;;;;;;;17.48;8.23;;;10.60;75.50;;;;;;5111842;28;20028;-72
2022/03/22 02:42:50;;;;;;;19.38;9.18;;;10.60;75.50;;;;;;5111279;28;20533;-73
2022/03/22 02:45:18;;;;;;;15.40;8.73;;;10.60;75.40;;;;;;5110441;27;20047;-73
2022/03/22 02:47:44;;;;;;;16.77;8.15;;;10.60;75.30;;;;;;5092932;28;20042;-73
2022/03/22 02:50:11;;;;;;;23.25;8.55;;;10.50;75.30;;;;;;5111628;28;20027;-73
2022/03/22 02:52:38;;;;;;;14.50;8.52;;;10.60;75.30;;;;;;5110274;28;20081;-74
2022/03/22 02:55:08;;;;;;;19.35;8.55;;;10.50;75.40;;;;;;5109975;28;20035;-73
2022/03/22 02:57:34;;;;;;;;;;;10.60;75.80;;;;;;5111660;28;20030;-73
2022/03/22 03:00:03;;;;;;;17.55;8.50;;;10.50;75.00;;;;;;5109897;28;19996;-73
2022/03/22 03:02:29;;;;;;;21.88;8.23;;;10.50;75.30;;;;;;5110147;28;20119;-74
2022/03/22 03:04:54;;;;;;;16.92;8.18;;;10.50;75.20;;;;;;5111086;28;20047;-73
2022/03/22 03:07:20;;;;;;;19.65;8.63;;;10.50;75.30;;;;;;5113905;28;20425;-73
2022/03/22 03:13:09;;;;;;;17.67;8.23;;;10.50;75.30;;;;;;5113565;28;20092;-73
2022/03/22 03:15:35;;;;;;;15.60;7.90;;;10.50;75.40;;;;;;5110533;27;20034;-72
2022/03/22 03:18:01;;;;;;;16.63;7.78;;;10.60;75.50;;;;;;5092321;28;20020;-73
2022/03/22 03:20:27;;;;;;;15.73;7.70;;;10.50;75.40;;;;;;5103180;28;20026;-73
2022/03/22 03:22:52;;;;;;;18.45;8.43;;;10.50;75.30;;;;;;5109853;28;20095;-73
2022/03/22 03:25:18;;;;;;;19.48;9.10;;;10.50;75.40;;;;;;5109337;28;20119;-73
2022/03/22 03:27:44;;;;;;;15.57;7.32;;;10.50;75.60;;;;;;5109178;28;21047;-73
2022/03/22 03:30:10;;;;;;;19.70;8.68;;;10.50;75.40;;;;;;5110771;27;20043;-73
2022/03/22 03:32:36;;;;;;;19.27;8.45;;;10.50;75.40;;;;;;5112404;27;20038;-73
2022/03/22 03:35:03;;;;;;;17.67;8.18;;;10.50;75.30;;;;;;5112536;27;20019;-74
2022/03/22 03:37:32;;;;;;;16.50;7.82;;;10.50;75.30;;;;;;5112190;27;20027;-74
2022/03/22 03:39:57;;;;;;;20.83;8.70;;;10.50;75.40;;;;;;5131091;27;20115;-74
2022/03/22 03:42:23;;;;;;;19.92;8.77;;;10.50;75.50;;;;;;5130338;27;20106;-73
2022/03/22 03:47:34;;;;;;;17.20;8.43;;;10.50;75.50;;;;;;5110521;28;20080;-73
2022/03/22 03:50:02;;;;;;;15.07;7.78;;;10.50;75.40;;;;;;5109284;28;20016;-73
2022/03/22 03:52:32;;;;;;;17.67;8.15;;;10.50;75.50;;;;;;5102275;28;20046;-73
2022/03/22 03:55:00;;;;;;;16.50;7.70;;;10.50;75.40;;;;;;5108662;28;20263;-75
2022/03/22 03:57:27;;;;;;;16.35;7.75;;;10.50;75.40;;;;;;5110252;28;20515;-73
2022/03/22 03:59:54;;;;;;;15.15;8.23;;;10.50;75.30;;;;;;5110575;28;20031;-74
2022/03/22 04:02:21;;;;;;;18.40;8.65;;;10.50;75.50;;;;;;5108621;27;20046;-73
2022/03/22 04:04:51;;;;;;;15.68;7.70;;;10.50;75.50;;;;;;5109850;28;20501;-73
2022/03/22 04:07:18;;;;;;;;;;;10.50;75.30;;;;;;5090570;28;20107;-73
2022/03/22 04:09:43;;;;;;;16.35;8.32;;;10.50;75.20;;;;;;5089184;28;19904;-73
2022/03/22 04:12:09;;;;;;;19.42;7.97;;;10.50;75.30;;;;;;5089280;28;20028;-73
2022/03/22 04:14:35;;;;;;;14.27;6.88;;;10.50;75.30;;;;;;5102458;28;20065;-73
2022/03/22 04:17:01;;;;;;;15.10;8.32;;;10.50;75.30;;;;;;5116766;22;20701;-77
2022/03/22 04:19:27;;;;;;;20.52;8.57;;;10.50;75.40;;;;;;5113128;28;20032;-77
2022/03/22 04:21:53;;;;;;;16.90;8.20;;;10.50;75.30;;;;;;5102076;28;20058;-77
2022/03/22 04:24:19;;;;;;;20.90;7.97;;;10.50;75.40;;;;;;5092236;28;20051;-77
2022/03/22 04:26:46;;;;;;;18.48;7.55;;;10.50;75.20;;;;;;5102490;28;20031;-77
2022/03/22 04:34:44;;;;;;;20.08;8.25;;;10.40;75.20;;;;;;5092123;28;20065;-78
2022/03/22 04:37:15;;;;;;;19.65;8.20;;;10.40;75.00;;;;;;5105212;28;20106;-77
2022/03/22 04:39:45;;;;;;;18.77;8.05;;;10.40;75.30;;;;;;5108927;28;20537;-77
2022/03/22 04:42:13;;;;;;;21.27;8.15;;;10.40;75.10;;;;;;5108139;28;20023;-77
2022/03/22 04:44:39;;;;;;;20.17;7.65;;;10.40;75.10;;;;;;5102406;28;20103;-77
2022/03/22 04:47:05;;;;;;;16.05;7.28;;;10.40;75.10;;;;;;5096137;28;20107;-77
2022/03/22 04:49:33;;;;;;;18.92;8.18;;;10.40;75.30;;;;;;5101817;28;20102;-77
2022/03/22 04:57:27;;;;;;;22.08;8.20;;;10.40;75.10;;;;;;5098218;28;20039;-77
2022/03/22 04:59:54;;;;;;;16.23;8.55;;;10.40;74.90;;;;;;5100150;28;20216;-77
2022/03/22 05:02:20;;;;;;;19.63;8.00;;;10.40;74.90;;;;;;5098812;28;20512;-79
2022/03/22 05:04:46;;;;;;;19.17;8.80;;;10.40;74.90;;;;;;5107139;28;20016;-77
2022/03/22 05:07:12;;;;;;;19.05;8.40;;;10.40;74.80;;;;;;5100328;28;20016;-77
2022/03/22 05:09:37;;;;;;;17.83;8.07;;;10.40;75.00;;;;;;5098176;28;20024;-78
2022/03/22 05:12:03;;;;;;;21.65;8.38;;;10.40;74.90;;;;;;5095969;28;20512;-78
2022/03/22 05:14:29;;;;;;;23.42;8.90;;;10.40;74.90;;;;;;5107823;28;20024;-78
2022/03/22 05:16:56;;;;;;;22.02;8.07;;;10.40;74.90;;;;;;5098313;28;20107;-77
2022/03/22 05:19:23;;;;;;;15.75;7.35;;;10.40;74.90;;;;;;5106090;28;20031;-77
2022/03/22 05:21:48;;;;;;;16.15;8.60;;;10.40;75.00;;;;;;5100795;28;20110;-78
2022/03/22 05:24:14;;;;;;;16.67;8.05;;;10.40;74.80;;;;;;5096956;28;20111;-78
2022/03/22 05:26:40;;;;;;;19.27;7.70;;;10.40;74.80;;;;;;5105842;28;20461;-77
2022/03/22 05:29:06;;;;;;;18.27;7.85;;;10.40;74.90;;;;;;5104952;28;20532;-77
2022/03/22 05:31:34;;;;;;;20.02;8.63;;;10.40;74.90;;;;;;5110905;28;20476;-78
2022/03/22 05:34:01;;;;;;;20.25;8.35;;;10.40;75.00;;;;;;5105865;27;20473;-77
2022/03/22 05:36:27;;;;;;;20.67;8.10;;;10.40;74.80;;;;;;5093710;28;20016;-77
2022/03/22 05:38:53;;;;;;;19.30;7.47;;;10.40;74.70;;;;;;5086439;27;20107;-79
2022/03/22 05:41:20;;;;;;;15.82;7.50;;;10.40;75.00;;;;;;5113089;28;20024;-78
2022/03/22 05:43:46;;;;;;;19.13;7.40;;;10.40;75.00;;;;;;5113325;28;20027;-78
2022/03/22 05:46:11;;;;;;;17.08;8.35;;;10.40;74.80;;;;;;5111342;28;20027;-77
2022/03/22 05:48:40;;;;;;;18.40;7.80;;;10.40;74.80;;;;;;5094789;28;20043;-78
2022/03/22 05:51:06;;;;;;;17.52;8.45;;;10.40;75.00;;;;;;5113097;28;20027;-78
2022/03/22 05:53:32;;;;;;;16.45;7.32;;;10.40;74.80;;;;;;5112024;28;20537;-78
2022/03/22 05:55:58;;;;;;;14.13;7.82;;;10.40;74.90;;;;;;5112725;28;20069;-78
2022/03/22 05:58:24;;;;;;;16.40;7.90;;;10.40;75.20;;;;;;5112799;28;20042;-78
2022/03/22 06:00:49;;;;;;;22.13;8.10;;;10.40;74.90;;;;;;5112264;28;20386;-77
2022/03/22 06:03:15;;;;;;;13.43;7.30;;;10.40;74.80;;;;;;5111718;27;20095;-78
2022/03/22 06:05:45;;;;;;;18.60;7.32;;;10.40;75.00;;;;;;5111594;28;20407;-77
2022/03/22 06:08:10;;;;;;;26.70;7.70;;;10.40;74.70;;;;;;5109011;28;20024;-78
2022/03/22 06:10:36;;;;;;;14.82;8.15;;;10.40;75.10;;;;;;5105634;28;20208;-78
2022/03/22 06:13:03;;;;;;;17.45;8.20;;;10.40;74.90;;;;;;5111443;28;20410;-77
2022/03/22 06:15:30;;;;;;;20.45;8.13;;;10.40;74.70;;;;;;5111784;28;20034;-77
2022/03/22 06:17:58;;;;;;;20.83;8.38;;;10.40;74.70;;;;;;5111541;28;20031;-78
2022/03/22 06:20:39;;;;;;;20.25;8.88;;;10.40;74.70;;;;;;5109324;28;20069;-78
2022/03/22 06:23:06;;;;;;;;;;;10.40;75.20;;;;;;5111299;28;20020;-77
2022/03/22 06:25:34;;;;;;;18.92;8.52;;;10.40;75.30;;;;;;5111659;28;19908;-78
2022/03/22 06:28:00;;;;;;;21.80;8.20;;;10.40;75.30;;;;;;5111775;28;20023;-78
2022/03/22 06:30:26;;;;;;;25.35;9.25;;;10.50;74.60;;;;;;5111316;28;20020;-78
2022/03/22 06:33:14;;;;;;;27.52;9.63;;;10.60;74.10;;;;;;5111155;28;20028;-78
2022/03/22 06:35:43;;;;;;;21.45;9.15;;;10.60;73.30;;;;;;5090960;28;20031;-78
2022/03/22 06:38:09;;;;;;;21.88;10.10;;;10.70;73.20;;;;;;5090827;28;20489;-78
2022/03/22 06:40:38;;;;;;;22.67;10.38;;;10.70;73.20;;;;;;5095566;28;20122;-78
2022/03/22 06:43:08;;;;;;;24.00;11.07;;;10.80;73.30;;;;;;5114516;28;20045;-78
2022/03/22 06:45:34;;;;;;;25.85;9.52;;;10.80;73.50;;;;;;5110485;28;20129;-78
2022/03/22 06:48:00;;;;;;;22.70;9.93;;;10.80;73.50;;;;;;5111137;28;20500;-78
2022/03/22 06:50:26;;;;;;;16.83;9.10;;;10.90;73.50;;;;;;5111246;27;20028;-78
2022/03/22 06:52:53;;;;;;;18.45;8.98;;;10.90;74.50;;;;;;5110436;28;20406;-78
2022/03/22 06:55:22;;;;;;;24.67;9.10;;;10.90;73.90;;;;;;5109575;28;20064;-78
2022/03/22 06:57:51;;;;;;;18.02;8.13;;;11.00;74.20;;;;;;5110403;28;20028;-78
2022/03/22 07:00:20;;;;;;;19.27;8.07;;;11.00;74.30;;;;;;5088627;28;20235;-79
2022/03/22 07:02:46;;;;;;;24.88;9.02;;;11.00;74.30;;;;;;5090589;28;20081;-78
2022/03/22 07:05:12;;;;;;;21.30;9.73;;;11.00;74.60;;;;;;5120693;27;20120;-78
2022/03/22 07:07:39;;;;;;;25.40;8.13;;;11.10;74.90;;;;;;5131523;27;20468;-79
2022/03/22 07:10:06;;;;;;;19.63;8.50;;;11.00;74.70;;;;;;5131512;27;20586;-78
2022/03/22 07:12:33;;;;;;;19.55;8.40;;;11.10;74.70;;;;;;5130603;27;20027;-79
2022/03/22 07:14:59;;;;;;;18.13;8.55;;;11.10;74.30;;;;;;5131665;27;20031;-78
2022/03/22 07:17:24;;;;;;;16.83;8.60;;;11.10;74.20;;;;;;5131067;27;20035;-78
2022/03/22 07:19:51;;;;;;;18.95;8.20;;;11.20;74.40;;;;;;5118844;27;20031;-78
2022/03/22 07:22:17;;;;;;;16.42;8.45;;;11.20;74.20;;;;;;5110943;28;20050;-78
2022/03/22 07:24:42;;;;;;;17.23;7.85;;;11.20;74.40;;;;;;5110811;28;20516;-78
2022/03/22 07:27:08;;;;;;;25.58;7.38;;;11.20;74.30;;;;;;5110955;28;20418;-79
2022/03/22 07:29:34;;;;;;;16.63;7.40;;;11.30;74.50;;;;;;5109487;28;20034;-81
2022/03/22 07:32:00;;;;;;;28.90;9.10;;;11.30;74.80;;;;;;5110263;28;20028;-78
2022/03/22 07:34:26;;;;;;;26.83;8.88;;;11.30;74.80;;;;;;5110168;27;20492;-78
2022/03/22 07:36:54;;;;;;;18.60;8.85;;;11.30;74.90;;;;;;5110608;28;20078;-78
2022/03/22 07:39:23;;;;;;;18.33;8.73;;;11.30;74.80;;;;;;5092154;28;20114;-79
2022/03/22 07:41:49;;;;;;;17.75;8.23;;;11.40;75.20;;;;;;5110250;28;20100;-80
2022/03/22 07:44:15;;;;;;;14.95;8.43;;;11.40;74.50;;;;;;5110438;28;20038;-78
2022/03/22 07:46:42;;;;;;;18.42;8.32;;;11.40;74.50;;;;;;5104080;28;20492;-79
2022/03/22 07:54:39;;;;;;;15.68;8.23;;;11.40;74.80;;;;;;5110154;28;20054;-79
2022/03/22 07:57:07;;;;;;;21.88;7.47;;;11.50;74.70;;;;;;5110385;28;20220;-79
2022/03/22 07:59:32;;;;;;;16.83;7.97;;;11.50;75.10;;;;;;5110461;28;20038;-79
2022/03/22 08:01:58;;;;;;;13.88;7.05;;;11.50;74.00;;;;;;5110196;28;20382;-78
2022/03/22 08:04:24;;;;;;;24.42;8.85;;;11.50;73.70;;;;;;5107989;27;20020;-78
2022/03/22 08:06:49;;;;;;;14.75;7.80;;;11.50;73.90;;;;;;5109263;28;20031;-80
2022/03/22 08:09:15;;;;;;;25.40;7.75;;;11.50;74.10;;;;;;5110067;28;20479;-78
2022/03/22 08:11:41;;;;;;;15.85;8.27;;;11.50;73.70;;;;;;5110113;28;20036;-79
2022/03/22 08:14:08;;;;;;;18.30;7.90;;;11.50;73.80;;;;;;5110540;28;20027;-79
2022/03/22 08:16:36;;;;;;;13.68;7.40;;;11.50;74.30;;;;;;5110271;28;20023;-79
2022/03/22 08:19:05;;;;;;;16.95;7.80;;;11.50;74.90;;;;;;5109285;28;20381;-79
2022/03/22 08:21:31;;;;;;;17.65;8.25;;;11.50;73.90;;;;;;5108831;28;20102;-79
2022/03/22 08:23:57;;;;;;;24.15;8.18;;;11.50;73.20;;;;;;5110333;28;20107;-78
2022/03/22 08:26:25;;;;;;;19.75;9.35;;;11.50;73.60;;;;;;5109974;28;20103;-79
2022/03/22 08:28:51;;;;;;;13.27;5.00;;;11.50;74.60;;;;;;5102635;28;20059;-79
2022/03/22 08:31:17;;;;;;;20.25;7.88;;;11.50;74.10;;;;;;5109690;28;20083;-79
2022/03/22 08:33:42;;;;;;;15.60;7.18;;;11.50;73.70;;;;;;5109857;28;20055;-78
2022/03/22 08:36:08;;;;;;;14.95;5.45;;;11.50;73.30;;;;;;5109038;28;20051;-79
2022/03/22 08:38:34;;;;;;;16.92;7.82;;;11.50;72.80;;;;;;5109940;28;20027;-79
2022/03/22 08:41:01;;;;;;;16.98;7.45;;;11.50;73.20;;;;;;5108139;28;20354;-78
2022/03/22 08:43:27;;;;;;;18.13;8.35;;;11.50;72.60;;;;;;5109877;28;20024;-78
2022/03/22 08:45:54;;;;;;;19.95;7.50;;;11.50;72.40;;;;;;5110088;28;20028;-78
2022/03/22 08:48:20;;;;;;;18.25;7.93;;;11.50;72.90;;;;;;5110378;28;20016;-78
2022/03/22 08:50:48;;;;;;;17.40;8.05;;;11.50;74.20;;;;;;5108652;28;20031;-78
2022/03/22 08:53:16;;;;;;;13.27;7.25;;;11.50;74.30;;;;;;5109122;28;20046;-78
2022/03/22 08:55:45;;;;;;;16.33;8.10;;;11.50;73.30;;;;;;5127671;28;20032;-78
2022/03/22 08:58:11;;;;;;;16.45;8.73;;;11.50;74.00;;;;;;5130194;28;20033;-79
2022/03/22 09:00:38;;;;;;;16.88;9.00;;;11.50;72.80;;;;;;5131104;27;20015;-79
2022/03/22 09:03:05;;;;;;;17.17;8.38;;;11.50;73.60;;;;;;5134144;27;20024;-79
2022/03/22 09:08:16;;;;;;;14.73;6.50;;;11.50;73.50;;;;;;5134460;27;20038;-79
2022/03/22 09:10:46;;;;;;;20.88;7.57;;;11.50;73.90;;;;;;5133977;27;20027;-79
2022/03/22 09:13:12;;;;;;;20.57;9.00;;;11.60;73.30;;;;;;5131980;27;20113;-79
2022/03/22 09:15:39;;;;;;;20.35;8.35;;;11.60;73.30;;;;;;5111032;28;20022;-79
2022/03/22 09:18:39;;;;;;;17.52;8.88;;;11.50;74.50;;;;;;5112895;28;20695;-80
2022/03/22 09:21:00;;;;;;;22.02;8.85;;;11.60;74.30;;;;;;5121069;27;20126;-79
2022/03/22 09:23:25;;;;;;;18.85;7.97;;;11.60;75.10;;;;;;5133793;27;20034;-78
2022/03/22 09:25:51;;;;;;;21.20;9.90;;;11.60;74.10;;;;;;5133898;27;20023;-79
2022/03/22 09:28:17;;;;;;;20.67;8.25;;;11.60;74.70;;;;;;5133384;27;21062;-79
2022/03/22 09:30:45;;;;;;;19.48;8.20;;;11.60;74.00;;;;;;5130769;27;20023;-79
2022/03/22 09:33:11;;;;;;;16.48;7.88;;;11.70;72.00;;;;;;5112247;28;21491;-78
2022/03/22 09:35:37;;;;;;;16.50;9.02;;;11.60;71.50;;;;;;5119213;27;20210;-79
2022/03/22 09:38:03;;;;;;;15.85;7.32;;;11.70;71.80;;;;;;5133405;27;20051;-78
2022/03/22 09:40:30;;;;;;;26.63;9.52;;;11.70;72.20;;;;;;5133243;27;20058;-80
2022/03/22 09:42:56;;;;;;;20.20;8.68;;;11.70;72.40;;;;;;5132905;27;20027;-78
2022/03/22 09:45:27;;;;;;;14.48;6.45;;;11.80;72.50;;;;;;5133529;27;20027;-78
2022/03/22 09:47:53;;;;;;;18.80;9.65;;;11.80;72.60;;;;;;5133500;27;20128;-79
2022/03/22 09:50:20;;;;;;;16.05;5.47;;;11.80;72.60;;;;;;5109359;27;20094;-78
2022/03/22 09:52:49;;;;;;;13.70;7.88;;;11.80;72.40;;;;;;5116526;27;20073;-78
2022/03/22 09:55:16;;;;;;;20.75;9.38;;;11.80;71.40;;;;;;5112424;28;20020;-78
2022/03/22 09:57:43;;;;;;;21.88;8.98;;;11.80;71.70;;;;;;5112253;28;20062;-78
2022/03/22 10:00:13;;;;;;;24.63;10.27;;;11.80;72.30;;;;;;5112692;28;20622;-78
2022/03/22 10:02:39;;;;;;;20.10;9.80;;;11.90;73.00;;;;;;5112697;28;20038;-78
2022/03/22 10:05:05;;;;;;;20.13;9.82;;;11.90;73.40;;;;;;5111710;27;20035;-78
2022/03/22 10:07:31;;;;;;;24.77;11.10;;;12.00;73.50;;;;;;5110169;28;20484;-79
2022/03/22 10:10:00;;;;;;;20.45;9.38;;;12.00;75.20;;;;;;5111870;28;20039;-78
2022/03/22 10:12:30;;;;;;;21.45;10.55;;;12.00;74.70;;;;;;5110775;28;20039;-78
2022/03/22 10:15:08;;;;;;;17.80;6.93;;;12.10;73.80;;;;;;5112370;28;20031;-78
2022/03/22 10:17:34;;;;;;;20.00;10.75;;;12.20;74.50;;;;;;5112173;28;20023;-78
2022/03/22 10:20:00;;;;;;;26.52;8.98;;;12.20;74.50;;;;;;5096271;28;20039;-78
2022/03/22 10:22:27;;;;;;;16.35;7.15;;;12.20;73.60;;;;;;5091855;28;20054;-78
2022/03/22 10:24:57;;;;;;;19.30;9.30;;;12.20;74.00;;;;;;5108252;28;20031;-78
2022/03/22 10:27:29;;;;;;;29.13;10.98;;;12.30;73.40;;;;;;5113377;28;20507;-78
2022/03/22 10:29:56;;;;;;;24.10;10.75;;;12.30;72.50;;;;;;5111416;28;20028;-77
2022/03/22 10:32:37;;;;;;;21.92;10.50;;;12.30;74.00;;;;;;5127912;27;20037;-78
2022/03/22 10:35:11;;;;;;;8.55;4.50;;;12.40;74.00;;;;;;5132115;27;20038;-77
2022/03/22 10:37:38;;;;;;;20.67;8.35;;;12.40;72.90;;;;;;5112261;27;20032;-77
2022/03/22 10:40:27;;;;;;;23.90;9.98;;;12.40;74.20;;;;;;5111625;28;20056;-77
2022/03/22 10:42:57;;;;;;;24.25;11.10;;;12.50;73.10;;;;;;5111195;28;20023;-77
2022/03/22 10:45:22;;;;;;;28.17;11.13;;;12.50;73.80;;;;;;5111289;28;20072;-77
2022/03/22 10:47:48;;;;;;;28.23;11.32;;;12.50;74.40;;;;;;5111513;28;20485;-77
2022/03/22 10:53:36;;;;;;;24.25;11.93;;;12.50;74.10;;;;;;5105779;22;20087;-74
2022/03/22 10:56:04;;;;;;;14.70;7.40;;;12.50;74.40;;;;;;5041401;28;20439;-74
2022/03/22 10:58:31;;;;;;;19.95;9.07;;;12.50;74.10;;;;;;5053950;28;20021;-75
2022/03/22 11:01:00;;;;;;;26.05;11.05;;;12.50;73.80;;;;;;5054282;28;20031;-73
2022/03/22 11:03:30;;;;;;;19.88;9.02;;;12.60;73.50;;;;;;5050489;28;20025;-74
2022/03/22 11:05:57;;;;;;;;;;;12.60;71.00;;;;;;5052760;28;20481;-74
2022/03/22 11:08:25;;;;;;;18.40;8.95;;;12.70;72.60;;;;;;5058620;28;19909;-73
2022/03/22 11:10:53;;;;;;;20.85;10.20;;;12.70;72.10;;;;;;5050514;28;20169;-73
2022/03/22 11:13:19;;;;;;;25.10;11.57;;;12.70;74.00;;;;;;5049658;28;20037;-75
2022/03/22 11:15:49;;;;;;;24.98;10.82;;;12.80;72.70;;;;;;5050149;28;20029;-74
2022/03/22 11:18:18;;;;;;;18.80;7.63;;;12.80;72.20;;;;;;5032620;28;20029;-74
2022/03/22 11:21:04;;;;;;;23.60;11.18;;;12.90;72.50;;;;;;5032405;28;20025;-73
2022/03/22 11:23:32;;;;;;;24.83;9.57;;;12.90;72.60;;;;;;5049604;28;20021;-75
2022/03/22 11:26:17;;;;;;;25.15;9.95;;;12.90;72.70;;;;;;5050342;28;20045;-73
2022/03/22 11:28:44;;;;;;;24.20;10.82;;;12.90;73.60;;;;;;5032606;28;20032;-73
2022/03/22 11:31:13;;;;;;;22.90;11.15;;;13.00;74.30;;;;;;5055198;28;20553;-72
2022/03/22 11:36:28;;;;;;;23.80;8.80;;;13.00;74.30;;;;;;5049702;28;20047;-72
2022/03/22 11:39:01;;;;;;;11.85;5.38;;;13.00;74.00;;;;;;5031695;28;20250;-73
2022/03/22 11:44:17;;;;;;;24.90;11.20;;;13.10;73.20;;;;;;5050631;28;20060;-73
2022/03/22 11:46:44;;;;;;;14.25;5.72;;;13.20;73.80;;;;;;5031394;28;20060;-73
2022/03/22 11:49:22;;;;;;;24.13;11.38;;;13.10;73.30;;;;;;5031707;28;20043;-73
2022/03/22 11:52:12;;;;;;;25.08;11.52;;;13.10;74.00;;;;;;5050308;28;20025;-73
2022/03/22 11:54:40;;;;;;;26.70;13.02;;;13.10;74.40;;;;;;5046757;28;20036;-73
2022/03/22 11:57:07;;;;;;;20.90;8.90;;;13.10;75.10;;;;;;5046517;28;20049;-72
2022/03/22 11:59:41;;;;;;;25.17;11.57;;;13.10;73.90;;;;;;5032104;28;20103;-72
2022/03/22 12:02:15;;;;;;;2.85;1.35;;;13.10;75.30;;;;;;5050656;28;20021;-73
2022/03/22 12:04:50;;;;;;;31.70;11.82;;;13.10;74.70;;;;;;5052536;28;20097;-73
2022/03/22 12:07:22;;;;;;;25.75;11.20;;;13.20;75.00;;;;;;5069989;28;20027;-73
2022/03/22 12:09:47;;;;;;;26.02;11.98;;;13.20;74.70;;;;;;5067250;28;20033;-73
2022/03/22 12:12:15;;;;;;;24.95;9.55;;;13.20;75.60;;;;;;5051114;28;20042;-73
2022/03/22 12:14:45;;;;;;;22.90;9.70;;;13.20;74.70;;;;;;5037420;28;20378;-73
2022/03/22 12:17:11;;;;;;;21.23;10.30;;;13.20;74.70;;;;;;5031643;28;20044;-73
2022/03/22 12:19:37;;;;;;;25.38;10.98;;;13.20;73.90;;;;;;5049286;28;20029;-73
2022/03/22 12:22:06;;;;;;;31.05;12.30;;;13.20;74.70;;;;;;5048880;28;20110;-73
2022/03/22 12:24:34;;;;;;;31.63;12.25;;;13.20;75.20;;;;;;5048393;28;20033;-73
2022/03/22 12:27:02;;;;;;;21.00;11.55;;;13.20;76.00;;;;;;5049527;28;20097;-72
2022/03/22 12:29:27;;;;;;;4.80;2.10;;;13.20;75.50;;;;;;5049501;28;20029;-73
2022/03/22 12:31:54;;;;;;;12.73;4.55;;;13.20;75.20;;;;;;5048964;28;20677;-74
2022/03/22 12:34:28;;;;;;;17.77;7.75;;;13.30;74.50;;;;;;5049515;28;20028;-73
2022/03/22 12:36:53;;;;;;;25.70;11.07;;;13.30;74.90;;;;;;5033750;28;20075;-74
2022/03/22 12:39:19;;;;;;;19.55;9.95;;;13.20;75.70;;;;;;5052712;28;20052;-73
2022/03/22 12:41:46;;;;;;;20.92;9.48;;;13.20;76.40;;;;;;5033558;28;20028;-72
2022/03/22 12:44:12;;;;;;;20.92;11.43;;;13.20;75.90;;;;;;5052994;28;20046;-73
2022/03/22 12:46:38;;;;;;;11.18;5.60;;;13.30;76.40;;;;;;5053104;28;20021;-73
2022/03/22 12:49:05;;;;;;;23.65;9.57;;;13.20;76.60;;;;;;5052762;28;20017;-71
2022/03/22 12:51:31;;;;;;;25.77;11.07;;;13.20;75.90;;;;;;5051675;28;20067;-73
2022/03/22 12:54:01;;;;;;;20.00;6.68;;;13.20;75.40;;;;;;5052628;28;20084;-72
2022/03/22 12:56:27;;;;;;;23.30;9.60;;;13.20;75.00;;;;;;5035267;28;20375;-72
2022/03/22 12:58:53;;;;;;;22.88;10.35;;;13.20;75.20;;;;;;5052875;28;20028;-72
2022/03/22 13:01:19;;;;;;;12.35;6.55;;;13.20;75.60;;;;;;5052960;28;20094;-72
2022/03/22 13:03:45;;;;;;;18.58;9.10;;;13.20;75.90;;;;;;5053018;28;20467;-73
2022/03/22 13:06:11;;;;;;;16.88;9.05;;;13.20;75.80;;;;;;5035017;28;20032;-72
2022/03/22 13:11:29;;;;;;;23.30;9.98;;;13.30;74.90;;;;;;5052865;28;20039;-72
2022/03/22 13:17:11;;;;;;;24.25;10.50;;;13.30;74.40;;;;;;5051769;28;20091;-73
2022/03/22 13:19:38;;;;;;;22.67;9.50;;;13.30;76.10;;;;;;5027577;28;20131;-73
2022/03/22 13:22:04;;;;;;;20.80;8.15;;;13.20;76.40;;;;;;5051907;28;20037;-72